createdAt,value
2018-02-13T00:00:37.169Z,81.20
2018-02-13T00:03:05.586Z,81.32
2018-02-13T00:05:34.041Z,81.22
2018-02-13T00:10:53.693Z,81.09
2018-02-13T00:13:22.117Z,80.90
2018-02-13T00:15:50.541Z,80.82
2018-02-13T00:18:18.986Z,80.33
2018-02-13T00:20:47.386Z,81.00
2018-02-13T00:23:15.801Z,80.57
2018-02-13T00:25:44.273Z,80.69
2018-02-13T00:28:12.695Z,81.00
2018-02-13T00:30:41.107Z,81.05
2018-02-13T00:33:09.554Z,81.13
2018-02-13T00:35:37.957Z,81.25
2018-02-13T00:38:06.387Z,82.13
2018-02-13T00:40:34.892Z,82.34
2018-02-13T00:43:03.316Z,82.41
2018-02-13T00:45:31.726Z,82.10
2018-02-13T00:48:00.185Z,82.07
2018-02-13T00:50:28.599Z,81.63
2018-02-13T00:52:57.002Z,81.97
2018-02-13T00:55:25.451Z,81.97
2018-02-13T00:57:53.856Z,81.76
2018-02-13T01:00:22.302Z,81.69
2018-02-13T01:02:50.762Z,81.52
2018-02-13T01:05:19.167Z,83.24
2018-02-13T01:07:47.601Z,82.88
2018-02-13T01:10:16.046Z,83.31
2018-02-13T01:12:44.457Z,83.54
2018-02-13T01:15:12.890Z,82.98
2018-02-13T01:17:41.358Z,82.71
2018-02-13T01:20:09.761Z,82.69
2018-02-13T01:22:38.188Z,82.66
2018-02-13T01:25:06.652Z,82.62
2018-02-13T01:27:35.076Z,82.76
2018-02-13T01:30:03.514Z,83.12
2018-02-13T01:32:31.958Z,83.07
2018-02-13T01:35:00.394Z,82.71
2018-02-13T01:37:28.799Z,82.71
2018-02-13T01:39:57.246Z,82.64
2018-02-13T01:42:25.645Z,82.69
2018-02-13T01:44:54.074Z,82.18
2018-02-13T01:47:22.529Z,83.17
2018-02-13T01:49:50.946Z,83.06
2018-02-13T01:52:19.346Z,83.10
2018-02-13T01:54:47.799Z,83.21
2018-02-13T01:57:16.210Z,83.51
2018-02-13T01:59:44.631Z,83.41
2018-02-13T02:02:13.098Z,83.74
2018-02-13T02:04:41.489Z,83.23
2018-02-13T02:07:09.885Z,83.04
2018-02-13T02:09:38.351Z,83.04
2018-02-13T02:12:06.746Z,83.14
2018-02-13T02:14:35.138Z,82.60
2018-02-13T02:17:03.574Z,82.05
2018-02-13T02:19:31.979Z,83.19
2018-02-13T02:22:00.399Z,82.74
2018-02-13T02:24:28.841Z,83.42
2018-02-13T02:26:57.254Z,83.01
2018-02-13T02:29:25.668Z,82.72
2018-02-13T02:31:54.124Z,82.90
2018-02-13T02:34:22.550Z,83.32
2018-02-13T02:36:50.954Z,83.43
2018-02-13T02:39:19.401Z,83.33
2018-02-13T02:41:47.822Z,83.33
2018-02-13T02:44:16.241Z,83.79
2018-02-13T02:46:44.715Z,83.58
2018-02-13T02:49:13.131Z,84.07
2018-02-13T02:51:41.525Z,83.69
2018-02-13T02:54:09.979Z,83.34
2018-02-13T02:56:38.380Z,83.04
2018-02-13T02:59:06.793Z,83.49
2018-02-13T03:01:35.256Z,83.71
2018-02-13T03:04:03.650Z,83.25
2018-02-13T03:06:32.075Z,83.45
2018-02-13T03:09:00.684Z,83.22
2018-02-13T03:11:29.099Z,83.10
2018-02-13T03:13:57.505Z,82.84
2018-02-13T03:16:25.959Z,83.26
2018-02-13T03:18:54.372Z,83.07
2018-02-13T03:21:22.773Z,83.47
2018-02-13T03:23:51.206Z,83.91
2018-02-13T03:26:19.593Z,83.93
2018-02-13T03:28:48.003Z,83.75
2018-02-13T03:31:16.448Z,83.52
2018-02-13T03:33:44.841Z,83.45
2018-02-13T03:36:13.256Z,83.22
2018-02-13T03:38:41.716Z,82.54
2018-02-13T03:41:10.124Z,82.65
2018-02-13T03:43:38.529Z,83.33
2018-02-13T03:46:06.969Z,83.15
2018-02-13T03:48:35.366Z,82.97
2018-02-13T03:51:03.772Z,82.44
2018-02-13T03:53:32.220Z,82.77
2018-02-13T03:56:00.627Z,82.71
2018-02-13T03:58:29.041Z,82.62
2018-02-13T04:00:57.478Z,83.26
2018-02-13T04:03:25.892Z,83.31
2018-02-13T04:05:54.284Z,83.01
2018-02-13T04:08:22.717Z,82.87
2018-02-13T04:10:51.110Z,82.47
2018-02-13T04:13:19.563Z,83.02
2018-02-13T04:15:47.996Z,83.07
2018-02-13T04:18:16.391Z,82.89
2018-02-13T04:20:44.796Z,83.19
2018-02-13T04:23:13.253Z,83.10
2018-02-13T04:25:41.644Z,82.83
2018-02-13T04:28:10.052Z,82.94
2018-02-13T04:30:38.525Z,82.87
2018-02-13T04:33:06.927Z,82.60
2018-02-13T04:35:35.320Z,82.35
2018-02-13T04:38:03.754Z,82.29
2018-02-13T04:40:32.158Z,82.15
2018-02-13T04:43:00.567Z,81.85
2018-02-13T04:45:29.018Z,81.70
2018-02-13T04:47:57.425Z,81.98
2018-02-13T04:50:25.822Z,82.02
2018-02-13T04:52:54.259Z,81.69
2018-02-13T04:55:22.679Z,81.84
2018-02-13T04:57:51.073Z,81.76
2018-02-13T05:00:19.517Z,81.45
2018-02-13T05:02:47.927Z,81.43
2018-02-13T05:05:16.320Z,81.35
2018-02-13T05:07:44.767Z,81.59
2018-02-13T05:10:13.157Z,81.62
2018-02-13T05:12:41.577Z,81.47
2018-02-13T05:15:10.059Z,82.12
2018-02-13T05:17:38.471Z,82.08
2018-02-13T05:20:06.865Z,82.10
2018-02-13T05:22:35.333Z,81.78
2018-02-13T05:25:03.744Z,81.79
2018-02-13T05:27:32.152Z,81.85
2018-02-13T05:30:00.629Z,81.96
2018-02-13T05:32:29.017Z,82.01
2018-02-13T05:34:57.416Z,81.61
2018-02-13T05:37:25.879Z,82.25
2018-02-13T05:39:54.289Z,81.97
2018-02-13T05:42:22.692Z,81.66
2018-02-13T05:44:51.313Z,81.76
2018-02-13T05:47:19.725Z,81.58
2018-02-13T05:49:48.136Z,81.56
2018-02-13T05:52:16.573Z,81.43
2018-02-13T05:54:44.984Z,81.70
2018-02-13T05:57:13.397Z,82.34
2018-02-13T05:59:41.843Z,81.79
2018-02-13T06:02:10.255Z,81.57
2018-02-13T06:04:38.661Z,81.97
2018-02-13T06:07:07.097Z,81.97
2018-02-13T06:09:35.508Z,82.16
2018-02-13T06:12:03.893Z,82.82
2018-02-13T06:14:32.340Z,82.36
2018-02-13T06:17:00.760Z,82.43
2018-02-13T06:19:29.162Z,82.19
2018-02-13T06:21:57.629Z,82.48
2018-02-13T06:24:26.050Z,82.11
2018-02-13T06:26:54.445Z,81.98
2018-02-13T06:29:22.904Z,82.01
2018-02-13T06:31:51.310Z,81.92
2018-02-13T06:34:19.723Z,81.26
2018-02-13T06:36:48.183Z,81.96
2018-02-13T06:39:16.572Z,82.23
2018-02-13T06:41:44.958Z,82.26
2018-02-13T06:44:13.413Z,82.26
2018-02-13T06:46:41.832Z,81.94
2018-02-13T06:49:10.247Z,82.00
2018-02-13T06:51:38.709Z,82.13
2018-02-13T06:54:07.136Z,81.97
2018-02-13T06:56:35.536Z,81.67
2018-02-13T06:59:03.987Z,81.76
2018-02-13T07:01:32.373Z,81.66
2018-02-13T07:04:00.773Z,81.45
2018-02-13T07:06:29.230Z,81.54
2018-02-13T07:08:57.645Z,81.29
2018-02-13T07:11:26.041Z,81.20
2018-02-13T07:13:54.507Z,81.45
2018-02-13T07:16:22.915Z,81.55
2018-02-13T07:18:51.336Z,81.96
2018-02-13T07:21:19.785Z,81.66
2018-02-13T07:23:48.198Z,81.65
2018-02-13T07:26:16.620Z,81.57
2018-02-13T07:28:45.064Z,81.43
2018-02-13T07:31:13.461Z,81.20
2018-02-13T07:33:41.868Z,80.97
2018-02-13T07:36:10.320Z,80.79
2018-02-13T07:38:38.709Z,80.84
2018-02-13T07:41:07.115Z,80.82
2018-02-13T07:43:35.565Z,80.64
2018-02-13T07:46:03.966Z,80.78
2018-02-13T07:48:32.376Z,80.87
2018-02-13T07:51:00.824Z,80.72
2018-02-13T07:53:29.231Z,80.34
2018-02-13T07:55:57.629Z,80.27
2018-02-13T07:58:26.106Z,79.83
2018-02-13T08:00:54.516Z,80.41
2018-02-13T08:03:22.936Z,80.52
2018-02-13T08:05:51.381Z,80.11
2018-02-13T08:08:19.778Z,79.72
2018-02-13T08:10:48.181Z,79.54
2018-02-13T08:13:16.640Z,79.59
2018-02-13T08:15:45.037Z,79.25
2018-02-13T08:18:13.428Z,79.62
2018-02-13T08:20:41.892Z,79.82
2018-02-13T08:23:10.309Z,79.75
2018-02-13T08:25:38.702Z,79.32
2018-02-13T08:28:07.245Z,79.24
2018-02-13T08:30:35.662Z,79.66
2018-02-13T08:33:04.084Z,79.31
2018-02-13T08:35:32.560Z,78.81
2018-02-13T08:38:00.976Z,78.76
2018-02-13T08:40:29.375Z,78.53
2018-02-13T08:42:57.825Z,79.10
2018-02-13T08:45:26.240Z,79.18
2018-02-13T08:47:54.652Z,78.47
2018-02-13T08:50:23.098Z,78.67
2018-02-13T08:52:51.482Z,78.49
2018-02-13T08:55:19.870Z,78.55
2018-02-13T08:57:48.465Z,78.01
2018-02-13T09:00:16.888Z,77.81
2018-02-13T09:02:45.300Z,77.86
2018-02-13T09:05:13.764Z,78.01
2018-02-13T09:07:42.157Z,77.68
2018-02-13T09:10:10.572Z,77.43
2018-02-13T09:12:39.025Z,77.60
2018-02-13T09:15:07.417Z,76.86
2018-02-13T09:17:35.824Z,77.40
2018-02-13T09:20:04.297Z,76.72
2018-02-13T09:22:32.711Z,76.43
2018-02-13T09:25:01.102Z,75.68
2018-02-13T09:27:29.569Z,74.64
2018-02-13T09:29:57.974Z,74.61
2018-02-13T09:32:26.369Z,73.78
2018-02-13T09:34:54.805Z,73.97
2018-02-13T09:37:23.207Z,73.85
2018-02-13T09:39:51.608Z,72.90
2018-02-13T09:42:20.044Z,72.68
2018-02-13T09:44:48.429Z,71.98
2018-02-13T09:47:16.843Z,72.82
2018-02-13T09:49:45.257Z,72.51
2018-02-13T09:52:13.656Z,71.78
2018-02-13T09:54:42.045Z,71.70
2018-02-13T09:57:10.485Z,69.97
2018-02-13T09:59:39.776Z,71.04
2018-02-13T10:02:08.166Z,70.65
2018-02-13T10:04:36.606Z,71.82
2018-02-13T10:07:05.009Z,70.81
2018-02-13T10:09:33.390Z,71.49
2018-02-13T10:12:01.818Z,71.80
2018-02-13T10:14:30.232Z,71.39
2018-02-13T10:16:58.665Z,71.79
2018-02-13T10:19:27.325Z,70.96
2018-02-13T10:21:55.757Z,71.75
2018-02-13T10:24:24.188Z,71.92
2018-02-13T10:26:52.808Z,71.49
2018-02-13T10:29:21.212Z,71.79
2018-02-13T10:31:50.039Z,71.86
2018-02-13T10:34:18.504Z,69.59
2018-02-13T10:36:46.893Z,70.63
2018-02-13T10:39:15.311Z,69.75
2018-02-13T10:41:43.758Z,70.03
2018-02-13T10:44:12.207Z,70.57
2018-02-13T10:46:40.573Z,69.87
2018-02-13T10:49:09.010Z,69.33
2018-02-13T10:51:37.397Z,69.51
2018-02-13T10:54:05.800Z,69.78
2018-02-13T10:56:34.263Z,69.89
2018-02-13T10:59:02.672Z,69.81
2018-02-13T11:01:36.738Z,69.04
2018-02-13T11:04:05.123Z,69.30
2018-02-13T11:06:33.497Z,68.63
2018-02-13T11:09:01.940Z,68.54
2018-02-13T11:11:30.334Z,67.54
2018-02-13T11:13:58.729Z,68.64
2018-02-13T11:16:27.153Z,68.54
2018-02-13T11:18:55.551Z,68.45
2018-02-13T11:21:23.936Z,66.73
2018-02-13T11:23:52.462Z,68.37
2018-02-13T11:26:20.860Z,66.82
2018-02-13T11:28:49.257Z,66.88
2018-02-13T11:31:17.700Z,67.39
2018-02-13T11:33:46.111Z,67.71
2018-02-13T11:36:14.502Z,68.04
2018-02-13T11:38:42.952Z,67.21
2018-02-13T11:41:11.338Z,67.27
2018-02-13T11:43:39.740Z,66.83
2018-02-13T11:46:08.185Z,67.04
2018-02-13T11:48:36.596Z,66.73
2018-02-13T11:51:05.000Z,67.49
2018-02-13T11:53:33.444Z,65.77
2018-02-13T11:56:01.846Z,66.10
2018-02-13T11:58:30.245Z,64.79
2018-02-13T12:00:58.705Z,65.61
2018-02-13T12:03:27.083Z,65.19
2018-02-13T12:05:55.494Z,64.81
2018-02-13T12:08:23.953Z,66.13
2018-02-13T12:10:52.339Z,64.05
2018-02-13T12:13:20.734Z,64.21
2018-02-13T12:15:49.200Z,64.21
2018-02-13T12:18:17.587Z,64.56
2018-02-13T12:20:45.980Z,63.87
2018-02-13T12:23:14.420Z,63.74
2018-02-13T12:25:42.865Z,64.62
2018-02-13T12:28:11.305Z,64.07
2018-02-13T12:30:39.796Z,62.63
2018-02-13T12:33:08.259Z,63.08
2018-02-13T12:35:36.659Z,61.92
2018-02-13T12:38:05.114Z,62.08
2018-02-13T12:40:33.511Z,62.30
2018-02-13T12:43:01.923Z,62.83
2018-02-13T12:45:30.540Z,62.11
2018-02-13T12:47:58.965Z,63.21
2018-02-13T12:50:27.362Z,61.92
2018-02-13T12:52:55.839Z,63.38
2018-02-13T12:55:24.248Z,61.63
2018-02-13T12:57:52.668Z,60.41
2018-02-13T13:00:21.110Z,61.32
2018-02-13T13:02:49.509Z,61.33
2018-02-13T13:05:17.950Z,61.55
2018-02-13T13:07:46.421Z,60.54
2018-02-13T13:10:14.839Z,61.04
2018-02-13T13:12:43.256Z,59.75
2018-02-13T13:15:11.703Z,58.40
2018-02-13T13:17:40.101Z,59.82
2018-02-13T13:20:08.490Z,60.88
2018-02-13T13:22:36.937Z,60.94
2018-02-13T13:25:05.318Z,60.69
2018-02-13T13:27:33.697Z,60.01
2018-02-13T13:30:02.145Z,58.12
2018-02-13T13:32:30.556Z,59.52
2018-02-13T13:34:58.965Z,59.98
2018-02-13T13:37:27.393Z,58.46
2018-02-13T13:39:55.808Z,60.52
2018-02-13T13:42:24.209Z,59.14
2018-02-13T13:44:52.674Z,57.13
2018-02-13T13:47:21.072Z,58.73
2018-02-13T13:49:49.477Z,59.87
2018-02-13T13:52:17.909Z,59.53
2018-02-13T13:54:46.327Z,58.87
2018-02-13T13:57:14.717Z,58.06
2018-02-13T13:59:43.164Z,57.80
2018-02-13T14:02:11.574Z,57.75
2018-02-13T14:04:39.988Z,59.10
2018-02-13T14:07:08.450Z,56.96
2018-02-13T14:09:36.856Z,59.13
2018-02-13T14:12:05.277Z,57.00
2018-02-13T14:14:33.865Z,57.31
2018-02-13T14:17:03.176Z,54.67
2018-02-13T14:19:31.577Z,57.73
2018-02-13T14:22:00.018Z,56.63
2018-02-13T14:24:28.411Z,53.89
2018-02-13T14:26:56.829Z,55.65
2018-02-13T14:29:25.293Z,56.61
2018-02-13T14:31:53.700Z,55.39
2018-02-13T14:34:22.113Z,55.37
2018-02-13T14:36:50.521Z,53.10
2018-02-13T14:39:18.914Z,56.41
2018-02-13T14:41:47.294Z,53.74
2018-02-13T14:44:15.749Z,54.82
2018-02-13T14:46:44.133Z,55.76
2018-02-13T14:49:12.514Z,56.05
2018-02-13T14:51:40.937Z,52.02
2018-02-13T14:54:09.342Z,52.54
2018-02-13T14:56:37.747Z,54.00
2018-02-13T14:59:06.233Z,51.60
2018-02-13T15:01:34.636Z,51.81
2018-02-13T15:04:03.028Z,51.99
2018-02-13T15:06:31.472Z,49.78
2018-02-13T15:08:59.861Z,49.69
2018-02-13T15:11:28.273Z,49.21
2018-02-13T15:13:56.759Z,50.39
2018-02-13T15:16:25.180Z,50.56
2018-02-13T15:18:53.596Z,49.28
2018-02-13T15:21:22.034Z,50.07
2018-02-13T15:23:50.433Z,50.50
2018-02-13T15:26:18.825Z,48.58
2018-02-13T15:28:47.262Z,49.64
2018-02-13T15:31:15.641Z,48.82
2018-02-13T15:33:44.056Z,48.52
2018-02-13T15:36:12.475Z,49.54
2018-02-13T15:38:40.874Z,48.69
2018-02-13T15:41:09.266Z,49.53
2018-02-13T15:43:37.713Z,49.77
2018-02-13T15:46:06.119Z,50.69
2018-02-13T15:48:34.507Z,52.27
2018-02-13T15:51:02.938Z,51.37
2018-02-13T15:53:31.323Z,51.62
2018-02-13T15:55:59.721Z,52.56
2018-02-13T15:58:28.157Z,52.87
2018-02-13T16:00:56.545Z,53.52
2018-02-13T16:03:24.927Z,54.31
2018-02-13T16:05:53.510Z,54.99
2018-02-13T16:08:21.905Z,55.25
2018-02-13T16:10:50.286Z,55.99
2018-02-13T16:13:18.738Z,100.00
2018-02-13T16:15:47.145Z,100.00
2018-02-13T16:18:15.564Z,57.38
2018-02-13T16:20:44.014Z,58.70
2018-02-13T16:23:12.413Z,59.35
2018-02-13T16:25:40.840Z,100.00
2018-02-13T16:28:09.287Z,59.94
2018-02-13T16:30:37.700Z,100.00
2018-02-13T16:33:06.662Z,100.00
2018-02-13T16:35:35.130Z,100.00
2018-02-13T16:38:03.565Z,100.00
2018-02-13T16:40:32.008Z,100.00
2018-02-13T16:43:00.507Z,100.00
2018-02-13T16:45:28.949Z,100.00
2018-02-13T16:47:57.406Z,100.00
2018-02-13T16:50:25.888Z,100.00
2018-02-13T16:52:54.324Z,100.00
2018-02-13T16:55:22.738Z,100.00
2018-02-13T16:57:51.204Z,100.00
2018-02-13T17:00:19.641Z,100.00
2018-02-13T17:02:48.067Z,100.00
2018-02-13T17:05:16.546Z,100.00
2018-02-13T17:07:44.994Z,100.00
2018-02-13T17:10:13.425Z,100.00
2018-02-13T17:12:42.136Z,100.00
2018-02-13T17:15:10.569Z,100.00
2018-02-13T17:17:39.012Z,100.00
2018-02-13T17:20:07.478Z,100.00
2018-02-13T17:22:35.922Z,100.00
2018-02-13T17:25:04.377Z,100.00
2018-02-13T17:27:32.858Z,100.00
2018-02-13T17:30:01.284Z,100.00
2018-02-13T17:32:29.741Z,100.00
2018-02-13T17:34:58.246Z,100.00
2018-02-13T17:37:26.674Z,100.00
2018-02-13T17:41:11.471Z,66.79
2018-02-13T17:43:39.874Z,66.97
2018-02-13T17:46:08.279Z,66.89
2018-02-13T17:48:36.737Z,67.19
2018-02-13T17:51:05.150Z,67.20
2018-02-13T17:53:33.549Z,67.53
2018-02-13T17:56:01.998Z,67.42
2018-02-13T17:58:30.381Z,67.76
2018-02-13T18:00:58.808Z,68.33
2018-02-13T18:03:27.265Z,68.34
2018-02-13T18:05:55.655Z,68.25
2018-02-13T18:08:24.052Z,68.53
2018-02-13T18:10:52.516Z,68.90
2018-02-13T18:13:20.977Z,68.60
2018-02-13T18:15:49.365Z,68.37
2018-02-13T18:18:18.103Z,68.08
2018-02-13T18:20:46.486Z,68.13
2018-02-13T18:23:14.884Z,68.06
2018-02-13T18:25:43.338Z,68.05
2018-02-13T18:28:11.721Z,68.17
2018-02-13T18:30:40.132Z,68.18
2018-02-13T18:33:08.597Z,67.56
2018-02-13T18:35:37.023Z,67.62
2018-02-13T18:38:05.407Z,67.84
2018-02-13T18:40:33.848Z,67.62
2018-02-13T18:43:02.251Z,67.54
2018-02-13T18:45:30.660Z,66.84
2018-02-13T18:47:59.100Z,66.04
2018-02-13T18:50:27.493Z,66.10
2018-02-13T18:55:24.340Z,65.79
2018-02-13T18:57:52.745Z,65.69
2018-02-13T19:00:21.149Z,65.14
2018-02-13T19:02:49.604Z,65.26
2018-02-13T19:05:18.009Z,64.86
2018-02-13T19:07:46.401Z,64.94
2018-02-13T19:10:14.863Z,65.22
2018-02-13T19:12:43.257Z,65.23
2018-02-13T19:15:11.665Z,65.01
2018-02-13T19:17:40.086Z,64.72
2018-02-13T19:20:08.493Z,64.60
2018-02-13T19:22:36.891Z,64.91
2018-02-13T19:25:05.326Z,65.36
2018-02-13T19:27:33.718Z,65.53
2018-02-13T19:30:02.124Z,65.93
2018-02-13T19:32:30.548Z,65.88
2018-02-13T19:34:58.967Z,65.75
2018-02-13T19:37:27.368Z,65.88
2018-02-13T19:39:55.800Z,65.92
2018-02-13T19:42:24.210Z,65.48
2018-02-13T19:44:52.620Z,65.45
2018-02-13T19:47:21.065Z,65.54
2018-02-13T19:49:49.449Z,65.27
2018-02-13T19:52:17.844Z,65.36
2018-02-13T19:54:46.454Z,65.02
2018-02-13T19:57:14.853Z,64.59
2018-02-13T19:59:43.236Z,64.19
2018-02-13T20:02:11.672Z,63.78
2018-02-13T20:04:40.069Z,62.81
2018-02-13T20:07:08.445Z,62.82
2018-02-13T20:09:36.905Z,62.77
2018-02-13T20:12:05.341Z,61.67
2018-02-13T20:14:33.733Z,62.16
2018-02-13T20:17:02.168Z,62.32
2018-02-13T20:19:30.546Z,62.79
2018-02-13T20:21:58.939Z,62.31
2018-02-13T20:24:27.555Z,62.39
2018-02-13T20:26:55.980Z,62.30
2018-02-13T20:29:24.369Z,63.46
2018-02-13T20:31:53.177Z,63.92
2018-02-13T20:34:21.685Z,61.84
2018-02-13T20:36:50.068Z,61.81
2018-02-13T20:39:18.517Z,62.20
2018-02-13T20:41:46.906Z,61.81
2018-02-13T20:44:15.298Z,61.97
2018-02-13T20:46:43.813Z,62.56
2018-02-13T20:49:12.221Z,62.86
2018-02-13T20:51:40.591Z,62.75
2018-02-13T20:54:09.023Z,63.18
2018-02-13T20:56:37.444Z,63.03
2018-02-13T20:59:05.822Z,63.13
2018-02-13T21:01:34.260Z,63.35
2018-02-13T21:04:02.661Z,63.62
2018-02-13T21:06:31.048Z,64.07
2018-02-13T21:08:59.688Z,63.69
2018-02-13T21:11:28.070Z,63.38
2018-02-13T21:13:56.457Z,63.29
2018-02-13T21:16:24.897Z,63.52
2018-02-13T21:18:53.292Z,63.40
2018-02-13T21:21:21.692Z,63.44
2018-02-13T21:23:50.123Z,63.81
2018-02-13T21:26:18.514Z,64.23
2018-02-13T21:28:46.898Z,64.78
2018-02-13T21:31:15.316Z,65.05
2018-02-13T21:33:43.690Z,65.31
2018-02-13T21:36:12.117Z,65.63
2018-02-13T21:38:40.545Z,65.84
2018-02-13T21:41:08.965Z,65.76
2018-02-13T21:43:37.343Z,65.57
2018-02-13T21:46:05.758Z,65.10
2018-02-13T21:48:34.186Z,65.60
2018-02-13T21:51:02.574Z,65.91
2018-02-13T21:53:30.998Z,65.85
2018-02-13T21:55:59.392Z,65.87
2018-02-13T21:58:27.789Z,65.95
2018-02-13T22:00:56.246Z,66.23
2018-02-13T22:03:24.626Z,65.98
2018-02-13T22:05:53.087Z,66.09
2018-02-13T22:08:21.521Z,66.20
2018-02-13T22:10:49.960Z,66.30
2018-02-13T22:13:18.403Z,66.43
2018-02-13T22:15:46.840Z,66.62
2018-02-13T22:18:15.289Z,66.68
2018-02-13T22:20:43.673Z,66.71
2018-02-13T22:23:12.101Z,66.58
2018-02-13T22:25:40.517Z,66.53
2018-02-13T22:28:08.924Z,66.88
2018-02-13T22:30:37.369Z,66.65
2018-02-13T22:33:05.769Z,66.35
2018-02-13T22:35:34.163Z,65.64
2018-02-13T22:38:02.629Z,65.78
2018-02-13T22:40:31.035Z,65.94
2018-02-13T22:42:59.441Z,66.39
2018-02-13T22:45:27.908Z,66.39
2018-02-13T22:47:56.316Z,66.83
2018-02-13T22:50:24.713Z,66.38
2018-02-13T22:52:53.160Z,66.65
2018-02-13T22:55:21.579Z,66.43
2018-02-13T22:57:49.974Z,67.22
2018-02-13T23:00:21.324Z,67.44
2018-02-13T23:02:49.717Z,67.56
2018-02-13T23:05:18.121Z,67.92
2018-02-13T23:07:46.775Z,68.15
2018-02-13T23:10:15.162Z,67.86
2018-02-13T23:12:43.569Z,67.25
2018-02-13T23:15:12.049Z,67.04
2018-02-13T23:17:40.453Z,66.95
2018-02-13T23:20:08.838Z,66.94
2018-02-13T23:22:37.263Z,66.83
2018-02-13T23:25:05.648Z,67.10
2018-02-13T23:27:34.048Z,66.69
2018-02-13T23:30:02.478Z,67.11
2018-02-13T23:32:30.880Z,67.08
2018-02-13T23:34:59.288Z,67.34
2018-02-13T23:37:27.736Z,67.26
2018-02-13T23:39:56.120Z,67.48
2018-02-13T23:42:24.510Z,67.52
2018-02-13T23:44:52.940Z,67.46
2018-02-13T23:47:21.333Z,67.76
2018-02-13T23:49:49.749Z,67.87
2018-02-13T23:52:18.173Z,68.04
2018-02-13T23:54:46.580Z,68.41
2018-02-13T23:57:14.965Z,68.53
2018-02-13T23:59:43.410Z,68.25
